Time;durP1;ratioP1;P1;durP2;ratioP2;P2;SDS_P1;SDS_P2;PMS_P1;PMS_P2;Temp;Humidity;BMP_temperature;BMP_pressure;BME280_temperature;BME280_humidity;BME280_pressure;Samples;Min_cycle;Max_cycle;Signal;HPM_P1;HPM_P2
2021/12/29 00:01:22;;;;;;;8.73;4.37;;;10.30;99.90;;;;;;6311722;22;20146;-94
2021/12/29 00:03:48;;;;;;;8.47;4.17;;;10.30;99.90;;;;;;6312565;22;20685;-95
2021/12/29 00:06:14;;;;;;;7.27;3.77;;;10.30;99.90;;;;;;6312017;22;20146;-95
2021/12/29 00:08:40;;;;;;;9.80;3.77;;;10.30;99.90;;;;;;6312485;22;20169;-94
2021/12/29 00:11:06;;;;;;;9.33;4.23;;;10.40;99.90;;;;;;6312246;22;20187;-92
2021/12/29 00:13:32;;;;;;;10.33;4.30;;;10.40;99.90;;;;;;6339465;22;20132;-88
2021/12/29 00:16:00;;;;;;;11.30;4.27;;;10.40;99.90;;;;;;6312130;22;20164;-94
2021/12/29 00:18:29;;;;;;;9.57;4.37;;;10.50;99.90;;;;;;6311898;22;20184;-93
2021/12/29 00:20:57;;;;;;;8.43;3.73;;;10.50;99.90;;;;;;6312579;22;20172;-94
2021/12/29 00:23:24;;;;;;;6.03;3.77;;;10.50;99.90;;;;;;6311969;22;20172;-93
2021/12/29 00:25:50;;;;;;;7.03;3.73;;;10.40;99.90;;;;;;6311547;22;20159;-86
2021/12/29 00:28:16;;;;;;;6.67;3.40;;;10.30;99.90;;;;;;6311381;22;20630;-90
2021/12/29 00:30:42;;;;;;;7.37;3.83;;;10.30;99.90;;;;;;6311921;22;20144;-94
2021/12/29 00:33:08;;;;;;;8.27;3.67;;;10.20;99.90;;;;;;6312828;22;20177;-95
2021/12/29 00:35:35;;;;;;;10.30;3.93;;;10.30;99.90;;;;;;6312308;22;20161;-94
2021/12/29 00:38:03;;;;;;;7.43;3.67;;;10.30;99.90;;;;;;6312946;22;20188;-95
2021/12/29 00:40:29;;;;;;;9.73;3.90;;;10.30;99.90;;;;;;6312296;22;20342;-94
2021/12/29 00:42:55;;;;;;;5.00;3.33;;;10.40;99.90;;;;;;6311770;22;20177;-94
2021/12/29 00:45:21;;;;;;;7.50;3.70;;;10.40;99.90;;;;;;6312011;22;20231;-93
2021/12/29 00:47:48;;;;;;;8.57;3.53;;;10.30;99.90;;;;;;6311547;22;20153;-95
2021/12/29 00:50:15;;;;;;;8.13;3.73;;;10.40;99.90;;;;;;6312621;22;20152;-94
2021/12/29 00:52:44;;;;;;;6.17;3.47;;;10.40;99.90;;;;;;6312065;22;20213;-95
2021/12/29 00:55:10;;;;;;;7.27;3.87;;;10.50;99.90;;;;;;6312259;22;20177;-94
2021/12/29 00:57:36;;;;;;;6.80;3.87;;;10.60;99.90;;;;;;6311660;22;20151;-94
2021/12/29 01:00:09;;;;;;;4.67;3.67;;;10.60;99.90;;;;;;6311910;22;20463;-95
2021/12/29 01:02:34;;;;;;;11.87;4.10;;;10.60;99.90;;;;;;6311829;22;20155;-93
2021/12/29 01:05:01;;;;;;;8.07;4.33;;;10.70;99.90;;;;;;6312218;22;20185;-94
2021/12/29 01:07:27;;;;;;;8.63;5.10;;;10.70;99.90;;;;;;6311731;22;20156;-93
2021/12/29 01:09:52;;;;;;;7.73;4.43;;;10.70;99.90;;;;;;6312102;22;20153;-94
2021/12/29 01:12:18;;;;;;;6.57;4.33;;;10.80;99.90;;;;;;6311501;22;20199;-94
2021/12/29 01:14:52;;;;;;;8.70;4.67;;;10.80;99.90;;;;;;6311825;22;20599;-94
2021/12/29 01:17:18;;;;;;;13.07;5.10;;;10.80;99.90;;;;;;6312501;22;20149;-95
2021/12/29 01:19:44;;;;;;;8.27;4.83;;;10.70;99.90;;;;;;6312216;22;20149;-95
2021/12/29 01:22:10;;;;;;;9.00;4.87;;;10.60;99.90;;;;;;6312011;22;20162;-94
2021/12/29 01:24:36;;;;;;;10.77;5.70;;;10.70;99.90;;;;;;6311814;22;20183;-95
2021/12/29 01:27:02;;;;;;;10.00;5.07;;;10.80;99.90;;;;;;6311571;22;20170;-95
2021/12/29 01:29:29;;;;;;;8.87;4.53;;;10.70;99.90;;;;;;6311766;22;20156;-94
2021/12/29 01:31:56;;;;;;;8.67;4.60;;;10.80;99.90;;;;;;6311943;22;20223;-95
2021/12/29 01:34:22;;;;;;;9.03;4.60;;;10.80;99.90;;;;;;6311435;22;20169;-95
2021/12/29 01:36:48;;;;;;;10.47;4.57;;;10.90;99.90;;;;;;6311843;22;20149;-92
2021/12/29 01:39:16;;;;;;;8.63;4.53;;;10.90;99.90;;;;;;6311275;22;20155;-95
2021/12/29 01:41:46;;;;;;;8.07;4.07;;;10.90;99.90;;;;;;6311147;22;20145;-95
2021/12/29 01:44:14;;;;;;;7.27;4.20;;;10.80;99.90;;;;;;6311631;22;20537;-96
2021/12/29 01:46:41;;;;;;;6.30;3.63;;;10.80;99.90;;;;;;6311885;22;20224;-95
2021/12/29 01:49:07;;;;;;;8.03;3.53;;;10.80;99.90;;;;;;6311981;22;20149;-94
2021/12/29 01:51:34;;;;;;;10.60;4.20;;;10.70;99.90;;;;;;6312490;22;20184;-94
2021/12/29 01:54:23;;;;;;;7.17;3.70;;;10.70;99.90;;;;;;6312112;22;20157;-94
2021/12/29 01:56:48;;;;;;;6.93;3.60;;;10.80;99.90;;;;;;6338028;22;20161;-95
2021/12/29 01:59:15;;;;;;;6.57;4.20;;;10.80;99.90;;;;;;6311852;22;20140;-95
2021/12/29 02:01:41;;;;;;;6.23;3.73;;;10.70;99.90;;;;;;6311313;22;20558;-93
2021/12/29 02:04:06;;;;;;;7.67;4.07;;;10.80;99.90;;;;;;6311549;22;20227;-95
2021/12/29 02:06:33;;;;;;;10.03;3.63;;;10.80;99.90;;;;;;6311953;22;20153;-94
2021/12/29 02:09:00;;;;;;;9.13;4.10;;;10.70;99.90;;;;;;6311213;22;20156;-91
2021/12/29 02:11:30;;;;;;;9.30;4.23;;;10.70;99.90;;;;;;6310733;22;20522;-96
2021/12/29 02:14:05;;;;;;;10.90;4.57;;;10.80;99.90;;;;;;6311002;22;20161;-92
2021/12/29 02:16:30;;;;;;;11.57;4.00;;;10.80;99.90;;;;;;6311901;22;20145;-96
2021/12/29 02:18:59;;;;;;;10.07;4.10;;;10.90;99.90;;;;;;6311237;22;20232;-96
2021/12/29 02:21:28;;;;;;;9.53;3.77;;;10.90;99.90;;;;;;6311672;22;20145;-94
2021/12/29 02:24:18;;;;;;;6.37;3.40;;;10.90;99.90;;;;;;6311544;22;20142;-94
2021/12/29 02:26:42;;;;;;;10.27;3.47;;;10.90;99.90;;;;;;6340051;22;20234;-96
2021/12/29 02:29:11;;;;;;;6.40;3.37;;;10.90;99.90;;;;;;6314527;22;20141;-96
2021/12/29 02:31:38;;;;;;;7.93;4.17;;;11.00;99.90;;;;;;6314216;22;20183;-95
2021/12/29 02:34:05;;;;;;;5.80;3.13;;;11.00;99.90;;;;;;6313277;22;20173;-94
2021/12/29 02:36:31;;;;;;;6.50;3.10;;;11.00;99.90;;;;;;6313019;22;20617;-95
2021/12/29 02:38:57;;;;;;;9.27;3.43;;;10.90;99.90;;;;;;6313146;22;20149;-94
2021/12/29 02:41:25;;;;;;;6.77;3.40;;;10.90;99.90;;;;;;6313180;22;20572;-95
2021/12/29 02:43:59;;;;;;;7.23;3.20;;;10.90;99.90;;;;;;6313196;22;20350;-94
2021/12/29 02:46:25;;;;;;;4.97;3.43;;;11.00;99.90;;;;;;6313309;22;20256;-94
2021/12/29 02:49:09;;;;;;;9.70;2.90;;;10.90;99.90;;;;;;6312561;22;20602;-94
2021/12/29 02:51:35;;;;;;;11.47;3.27;;;10.90;99.90;;;;;;6312990;22;20173;-95
2021/12/29 02:54:02;;;;;;;12.83;3.77;;;10.90;99.90;;;;;;6313109;22;20552;-93
2021/12/29 02:56:28;;;;;;;7.20;2.87;;;10.90;99.90;;;;;;6312888;22;20141;-94
2021/12/29 02:58:56;;;;;;;7.13;2.67;;;10.90;99.90;;;;;;6312953;22;20233;-95
2021/12/29 03:01:24;;;;;;;6.87;2.90;;;10.90;99.90;;;;;;6313334;22;20162;-95
2021/12/29 03:03:49;;;;;;;12.17;4.07;;;10.90;99.90;;;;;;6313128;22;20486;-95
2021/12/29 03:06:15;;;;;;;6.33;2.47;;;10.90;99.90;;;;;;6313197;22;20184;-95
2021/12/29 03:08:41;;;;;;;6.30;2.90;;;10.90;99.90;;;;;;6313057;22;20149;-95
2021/12/29 03:11:08;;;;;;;8.80;3.00;;;10.80;99.90;;;;;;6312981;22;20171;-94
2021/12/29 03:13:36;;;;;;;6.57;2.90;;;10.90;99.90;;;;;;6312975;22;20236;-95
2021/12/29 03:16:03;;;;;;;8.87;2.97;;;10.90;99.90;;;;;;6312608;22;20274;-95
2021/12/29 03:18:29;;;;;;;7.70;3.30;;;10.80;99.90;;;;;;6312737;22;20145;-94
2021/12/29 03:20:55;;;;;;;6.43;2.80;;;10.80;99.90;;;;;;6312309;22;20152;-94
2021/12/29 03:23:21;;;;;;;4.43;3.10;;;10.90;99.90;;;;;;6313108;22;20151;-93
2021/12/29 03:25:51;;;;;;;6.17;3.30;;;10.90;99.90;;;;;;6313202;22;20140;-94
2021/12/29 03:28:22;;;;;;;6.30;3.60;;;11.10;99.90;;;;;;6312664;22;20149;-95
2021/12/29 03:30:52;;;;;;;6.83;3.67;;;11.00;99.90;;;;;;6312949;22;20145;-95
2021/12/29 03:33:19;;;;;;;8.60;3.07;;;11.00;99.90;;;;;;6312907;22;20153;-95
2021/12/29 03:35:49;;;;;;;5.23;3.10;;;11.00;99.90;;;;;;6312462;22;20169;-95
2021/12/29 03:38:18;;;;;;;6.27;2.97;;;10.90;99.90;;;;;;6313122;22;20197;-95
2021/12/29 03:40:45;;;;;;;7.67;3.30;;;10.90;99.90;;;;;;6313158;22;20549;-93
2021/12/29 03:43:11;;;;;;;7.13;3.30;;;11.00;99.90;;;;;;6312978;22;20149;-95
2021/12/29 03:45:39;;;;;;;7.50;3.10;;;11.00;99.90;;;;;;6312598;22;20141;-95
2021/12/29 03:48:05;;;;;;;3.93;3.13;;;11.10;99.90;;;;;;6312732;22;20149;-94
2021/12/29 03:50:31;;;;;;;10.07;3.50;;;11.10;99.90;;;;;;6312522;22;20274;-94
2021/12/29 03:52:57;;;;;;;6.97;3.10;;;11.10;99.90;;;;;;6312029;22;20212;-93
2021/12/29 03:55:23;;;;;;;6.47;3.73;;;11.20;99.90;;;;;;6312555;22;20138;-94
2021/12/29 03:57:49;;;;;;;4.13;3.03;;;11.10;99.90;;;;;;6312894;22;20149;-94
2021/12/29 04:00:17;;;;;;;9.73;3.33;;;11.20;99.90;;;;;;6313217;22;20256;-94
2021/12/29 04:02:44;;;;;;;7.30;3.10;;;11.10;99.90;;;;;;6312427;22;20198;-93
2021/12/29 04:05:12;;;;;;;5.70;3.30;;;11.10;99.90;;;;;;6312596;22;20215;-94
2021/12/29 04:07:38;;;;;;;6.30;3.30;;;11.20;99.90;;;;;;6311813;22;20185;-94
2021/12/29 04:10:06;;;;;;;10.17;3.40;;;11.20;99.90;;;;;;6312705;22;20570;-94
2021/12/29 04:12:32;;;;;;;11.47;3.60;;;11.20;99.90;;;;;;6312319;22;20242;-94
2021/12/29 04:14:58;;;;;;;8.17;3.40;;;11.20;99.90;;;;;;6312934;22;20145;-94
2021/12/29 04:17:29;;;;;;;6.57;3.20;;;11.20;99.90;;;;;;6312927;22;20595;-94
2021/12/29 04:22:39;;;;;;;5.20;2.83;;;11.20;99.90;;;;;;6339647;22;20149;-94
2021/12/29 04:25:05;;;;;;;5.50;2.90;;;11.20;99.90;;;;;;6312382;22;20149;-95
2021/12/29 04:27:31;;;;;;;9.93;3.00;;;11.20;99.90;;;;;;6312197;22;20175;-94
2021/12/29 04:29:59;;;;;;;6.83;3.17;;;11.20;99.90;;;;;;6312316;22;20151;-95
2021/12/29 04:32:25;;;;;;;5.10;2.97;;;11.30;99.90;;;;;;6312348;22;20264;-95
2021/12/29 04:34:50;;;;;;;10.57;3.20;;;11.30;99.90;;;;;;6311925;22;20165;-93
2021/12/29 04:37:16;;;;;;;4.97;2.90;;;11.20;99.90;;;;;;6312602;22;20149;-95
2021/12/29 04:39:42;;;;;;;7.83;2.70;;;11.30;99.90;;;;;;6312202;22;20152;-95
2021/12/29 04:42:07;;;;;;;7.10;2.87;;;11.30;99.90;;;;;;6312869;22;20177;-95
2021/12/29 04:44:33;;;;;;;5.13;3.00;;;11.40;99.90;;;;;;6312358;22;20201;-95
2021/12/29 04:46:59;;;;;;;9.70;3.27;;;11.40;99.90;;;;;;6312160;22;20148;-93
2021/12/29 04:49:28;;;;;;;4.73;2.50;;;11.50;99.90;;;;;;6311778;22;20515;-94
2021/12/29 04:52:02;;;;;;;8.63;3.23;;;11.40;99.90;;;;;;6312208;22;20184;-94
2021/12/29 04:54:28;;;;;;;6.63;2.37;;;11.30;99.90;;;;;;6312131;22;20145;-94
2021/12/29 04:56:55;;;;;;;6.70;2.90;;;11.50;99.90;;;;;;6312319;22;20655;-94
2021/12/29 04:59:21;;;;;;;8.53;2.50;;;11.40;99.90;;;;;;6311739;22;20605;-93
2021/12/29 05:01:47;;;;;;;6.77;2.60;;;11.40;99.90;;;;;;6311712;22;20207;-94
2021/12/29 05:04:20;;;;;;;11.53;2.77;;;11.40;99.90;;;;;;6312207;22;20180;-94
2021/12/29 05:09:29;;;;;;;11.13;2.57;;;11.40;99.90;;;;;;6339208;22;20256;-93
2021/12/29 05:11:55;;;;;;;6.80;2.07;;;11.30;99.90;;;;;;6311988;22;20625;-94
2021/12/29 05:14:20;;;;;;;6.90;2.97;;;11.30;99.90;;;;;;6312104;22;20141;-93
2021/12/29 05:16:46;;;;;;;9.53;2.57;;;11.30;99.90;;;;;;6311812;22;20138;-94
2021/12/29 05:19:13;;;;;;;5.17;2.60;;;11.40;99.90;;;;;;6311217;22;20183;-95
2021/12/29 05:21:38;;;;;;;7.83;2.70;;;11.50;99.90;;;;;;6312033;22;20137;-95
2021/12/29 05:24:04;;;;;;;11.00;2.80;;;11.50;99.90;;;;;;6311438;22;20141;-94
2021/12/29 05:26:30;;;;;;;5.77;2.30;;;11.40;99.90;;;;;;6310929;22;20177;-94
2021/12/29 05:28:56;;;;;;;7.07;2.13;;;11.40;99.90;;;;;;6311713;22;20172;-94
2021/12/29 05:31:23;;;;;;;7.00;2.20;;;11.40;99.90;;;;;;6312238;22;20176;-95
2021/12/29 05:33:48;;;;;;;10.10;2.63;;;11.50;99.90;;;;;;6338959;22;20232;-95
2021/12/29 05:36:14;;;;;;;6.53;2.57;;;11.40;99.90;;;;;;6338782;22;20206;-95
2021/12/29 05:38:39;;;;;;;7.23;2.33;;;11.50;99.90;;;;;;6311427;22;20160;-95
2021/12/29 05:41:05;;;;;;;7.70;2.10;;;11.50;99.90;;;;;;6311513;22;20142;-94
2021/12/29 05:43:31;;;;;;;11.23;2.30;;;11.50;99.90;;;;;;6311500;22;20232;-94
2021/12/29 05:45:56;;;;;;;10.40;2.00;;;11.50;99.90;;;;;;6311476;22;20146;-95
2021/12/29 05:48:22;;;;;;;3.87;2.00;;;11.40;99.90;;;;;;6310879;22;20570;-93
2021/12/29 05:50:48;;;;;;;6.87;2.70;;;11.50;99.90;;;;;;6312243;22;20141;-94
2021/12/29 05:53:13;;;;;;;10.40;2.63;;;11.40;99.90;;;;;;6311953;22;20176;-94
2021/12/29 05:55:41;;;;;;;8.40;2.40;;;11.50;99.90;;;;;;6311371;22;20141;-94
2021/12/29 05:58:08;;;;;;;7.70;2.13;;;11.60;99.90;;;;;;6311858;22;20187;-94
2021/12/29 06:00:37;;;;;;;7.70;2.60;;;11.60;99.90;;;;;;6313116;22;20137;-92
2021/12/29 06:03:03;;;;;;;9.50;2.70;;;11.60;99.90;;;;;;6313240;22;20141;-96
2021/12/29 06:05:28;;;;;;;9.37;2.33;;;11.60;99.90;;;;;;6313530;22;20598;-95
2021/12/29 06:07:54;;;;;;;9.93;2.53;;;11.60;99.90;;;;;;6317291;22;20175;-93
2021/12/29 06:10:20;;;;;;;6.37;2.27;;;11.50;99.90;;;;;;6311942;22;20590;-96
2021/12/29 06:12:46;;;;;;;8.90;2.90;;;11.30;99.90;;;;;;6348511;22;20176;-96
2021/12/29 06:15:12;;;;;;;7.63;2.30;;;11.30;99.90;;;;;;6313644;22;20175;-95
2021/12/29 06:17:38;;;;;;;6.93;2.40;;;11.30;99.90;;;;;;6313342;22;20584;-95
2021/12/29 06:20:06;;;;;;;9.77;2.80;;;11.30;99.90;;;;;;6316313;22;20279;-94
2021/12/29 06:22:31;;;;;;;8.67;2.90;;;11.20;99.90;;;;;;6314184;22;20163;-95
2021/12/29 06:24:57;;;;;;;8.10;2.40;;;11.30;99.90;;;;;;6313090;22;20143;-95
2021/12/29 06:27:23;;;;;;;9.40;2.20;;;11.20;99.90;;;;;;6313659;22;20169;-93
2021/12/29 06:29:49;;;;;;;10.13;2.07;;;11.20;99.90;;;;;;6312937;22;20157;-92
2021/12/29 06:32:15;;;;;;;12.27;2.07;;;11.20;99.90;;;;;;6312454;22;20219;-95
2021/12/29 06:34:41;;;;;;;7.53;2.47;;;11.20;99.90;;;;;;6312557;22;20165;-95
2021/12/29 06:37:09;;;;;;;12.33;2.63;;;11.00;99.90;;;;;;6313489;22;20169;-92
2021/12/29 06:39:36;;;;;;;10.47;2.20;;;11.10;99.90;;;;;;6313711;22;20224;-92
2021/12/29 06:42:03;;;;;;;7.03;2.40;;;11.10;99.90;;;;;;6313428;22;20153;-95
2021/12/29 06:44:28;;;;;;;10.97;2.50;;;11.00;99.90;;;;;;6313206;22;20153;-96
2021/12/29 06:46:54;;;;;;;8.60;2.33;;;11.00;99.90;;;;;;6312907;22;20195;-95
2021/12/29 06:49:21;;;;;;;10.80;2.73;;;11.10;99.90;;;;;;6314767;22;20159;-96
2021/12/29 06:51:47;;;;;;;8.63;2.20;;;11.10;99.90;;;;;;6313160;22;20214;-94
2021/12/29 06:54:14;;;;;;;7.97;2.53;;;11.10;99.90;;;;;;6342154;22;20148;-94
2021/12/29 06:56:40;;;;;;;12.13;2.20;;;11.00;99.90;;;;;;6317965;22;20576;-94
2021/12/29 06:59:06;;;;;;;11.83;2.50;;;11.10;99.90;;;;;;6313322;22;20157;-93
2021/12/29 07:01:32;;;;;;;7.73;2.33;;;11.00;99.90;;;;;;6313306;22;20158;-89
2021/12/29 07:03:58;;;;;;;6.57;2.33;;;10.90;99.90;;;;;;6317401;22;20156;-93
2021/12/29 07:06:24;;;;;;;8.40;1.97;;;10.90;99.90;;;;;;6314461;22;20158;-93
2021/12/29 07:08:49;;;;;;;9.30;2.10;;;10.80;99.90;;;;;;6313769;22;20141;-96
2021/12/29 07:11:15;;;;;;;8.40;2.40;;;10.80;99.90;;;;;;6313458;22;20177;-95
2021/12/29 07:13:42;;;;;;;7.63;1.87;;;10.80;99.90;;;;;;6313403;22;20151;-95
2021/12/29 07:16:08;;;;;;;8.93;2.80;;;10.90;99.90;;;;;;6313406;22;20629;-96
2021/12/29 07:18:34;;;;;;;8.03;2.43;;;10.80;99.90;;;;;;6313113;22;20165;-96
2021/12/29 07:21:00;;;;;;;10.77;2.50;;;10.90;99.90;;;;;;6313062;22;20151;-94
2021/12/29 07:23:25;;;;;;;13.27;2.77;;;10.90;99.90;;;;;;6313565;22;20187;-95
2021/12/29 07:25:51;;;;;;;11.40;2.80;;;10.80;99.90;;;;;;6313159;22;20257;-96
2021/12/29 07:28:17;;;;;;;13.27;2.70;;;10.70;99.90;;;;;;6312521;22;20153;-95
2021/12/29 07:30:42;;;;;;;9.00;2.43;;;10.70;99.90;;;;;;6340597;22;20134;-94
2021/12/29 07:33:08;;;;;;;12.90;3.27;;;10.80;99.90;;;;;;6313415;22;20177;-95
2021/12/29 07:35:34;;;;;;;11.50;2.90;;;10.80;99.90;;;;;;6313128;22;20195;-96
2021/12/29 07:38:00;;;;;;;10.37;3.37;;;10.80;99.90;;;;;;6313066;22;20154;-93
2021/12/29 07:40:25;;;;;;;10.27;2.80;;;10.90;99.90;;;;;;6313341;22;20571;-94
2021/12/29 07:42:51;;;;;;;10.83;3.37;;;10.80;99.90;;;;;;6313028;22;20151;-94
2021/12/29 07:45:18;;;;;;;11.20;3.27;;;10.80;99.90;;;;;;6313812;22;20589;-95
2021/12/29 07:47:47;;;;;;;9.87;2.90;;;10.80;99.90;;;;;;6313791;22;20149;-95
2021/12/29 11:25:07;;;;;;;12.30;3.87;;;11.70;99.90;;;;;;6293601;22;20164;-88
2021/12/29 15:54:16;;;;;;;7.57;6.63;;;13.00;99.90;;;;;;6289610;22;20196;-89
2021/12/29 15:56:42;;;;;;;8.50;6.77;;;13.00;99.90;;;;;;6337011;22;20562;-90
2021/12/29 15:59:07;;;;;;;9.03;6.97;;;13.10;99.90;;;;;;6312518;22;20483;-88
2021/12/29 16:01:33;;;;;;;6.83;6.13;;;13.10;99.90;;;;;;6339696;22;20184;-91
2021/12/29 16:03:59;;;;;;;8.33;7.30;;;13.10;99.90;;;;;;6312206;22;20137;-93
2021/12/29 16:06:25;;;;;;;9.77;7.87;;;13.10;99.90;;;;;;6312616;22;20236;-89
2021/12/29 16:08:51;;;;;;;8.13;7.23;;;13.20;99.90;;;;;;6311893;22;20149;-93
2021/12/29 16:11:16;;;;;;;10.47;8.47;;;13.10;99.90;;;;;;6312262;22;20145;-93
2021/12/29 16:16:17;;;;;;;9.40;7.83;;;13.20;99.90;;;;;;6293143;22;20209;-91
2021/12/29 16:18:44;;;;;;;9.10;7.20;;;13.30;99.90;;;;;;6311275;22;20149;-90
2021/12/29 16:21:10;;;;;;;9.20;7.77;;;13.30;99.90;;;;;;6312486;22;20210;-90
2021/12/29 16:23:35;;;;;;;8.80;7.33;;;13.30;99.90;;;;;;6312583;22;20146;-90
2021/12/29 16:26:01;;;;;;;10.63;7.20;;;13.30;99.90;;;;;;6311948;22;20169;-90
2021/12/29 16:28:27;;;;;;;8.57;7.30;;;13.40;99.90;;;;;;6312522;22;20149;-90
2021/12/29 16:30:52;;;;;;;8.17;7.37;;;13.50;99.90;;;;;;6312179;22;20145;-90
2021/12/29 16:33:18;;;;;;;11.07;6.97;;;13.50;99.90;;;;;;6312299;22;20553;-89
2021/12/29 16:35:43;;;;;;;10.60;6.90;;;13.50;99.90;;;;;;6312024;22;20146;-89
2021/12/29 16:38:09;;;;;;;7.90;7.07;;;13.50;99.90;;;;;;6312253;22;20152;-90
2021/12/29 16:40:36;;;;;;;12.73;6.67;;;13.60;99.90;;;;;;6312189;22;20570;-90
2021/12/29 16:43:03;;;;;;;8.27;6.50;;;13.60;99.90;;;;;;6312160;22;20182;-90
2021/12/29 16:45:28;;;;;;;7.67;5.87;;;13.70;99.90;;;;;;6311749;22;20152;-89
2021/12/29 16:47:56;;;;;;;9.67;6.03;;;13.70;99.90;;;;;;6312457;22;20153;-90
2021/12/29 16:50:24;;;;;;;9.87;5.60;;;13.70;99.90;;;;;;6312451;22;20144;-89
2021/12/29 16:52:50;;;;;;;9.07;4.90;;;13.70;99.90;;;;;;6311840;22;20184;-90
2021/12/29 16:55:17;;;;;;;8.17;4.90;;;13.70;99.90;;;;;;6312127;22;20145;-89
2021/12/29 16:57:43;;;;;;;9.97;5.03;;;13.70;99.90;;;;;;6312496;22;20148;-89
2021/12/29 17:00:11;;;;;;;11.50;4.43;;;13.70;99.90;;;;;;6312057;22;20146;-90
2021/12/29 17:02:36;;;;;;;10.47;4.50;;;13.70;99.90;;;;;;6311731;22;20154;-90
2021/12/29 17:05:07;;;;;;;10.30;3.87;;;13.70;99.90;;;;;;6311802;22;20149;-89
2021/12/29 17:07:36;;;;;;;7.00;3.40;;;13.80;99.90;;;;;;6312054;22;20172;-89
2021/12/29 17:10:03;;;;;;;7.90;3.70;;;13.80;99.90;;;;;;6311504;22;20474;-90
2021/12/29 17:12:29;;;;;;;9.27;3.27;;;13.80;99.90;;;;;;6311814;22;20191;-90
2021/12/29 17:14:55;;;;;;;11.33;4.10;;;13.90;99.90;;;;;;6311559;22;20738;-90
2021/12/29 17:17:20;;;;;;;6.57;3.43;;;13.90;99.90;;;;;;6311966;22;20172;-89
2021/12/29 17:19:47;;;;;;;10.40;3.47;;;13.90;99.90;;;;;;6311712;22;20609;-89
2021/12/29 17:22:13;;;;;;;7.90;3.77;;;13.90;99.90;;;;;;6311873;22;20146;-89
2021/12/29 17:24:38;;;;;;;5.93;2.93;;;13.90;99.90;;;;;;6311398;22;20573;-90
2021/12/29 17:27:04;;;;;;;9.63;3.60;;;13.90;99.90;;;;;;6311779;22;20261;-89
2021/12/29 17:29:31;;;;;;;8.80;3.43;;;13.90;99.90;;;;;;6311642;22;20233;-90
2021/12/29 17:31:57;;;;;;;8.67;3.40;;;14.00;99.90;;;;;;6311525;22;20174;-88
2021/12/29 17:34:25;;;;;;;5.70;3.00;;;13.90;99.90;;;;;;6311356;22;20195;-89
2021/12/29 17:36:50;;;;;;;8.50;3.80;;;13.90;99.90;;;;;;6311709;22;20147;-89
2021/12/29 17:39:16;;;;;;;8.07;3.50;;;14.00;99.90;;;;;;6311662;22;20187;-89
2021/12/29 17:41:42;;;;;;;9.00;3.50;;;14.00;99.90;;;;;;6311423;22;20259;-89
2021/12/29 17:44:08;;;;;;;7.33;3.13;;;14.00;99.90;;;;;;6311446;22;20145;-89
2021/12/29 17:46:36;;;;;;;6.33;3.53;;;14.00;99.90;;;;;;6311346;22;20253;-89
2021/12/29 17:49:05;;;;;;;8.33;3.43;;;14.00;99.90;;;;;;6311390;22;20153;-89
2021/12/29 17:51:30;;;;;;;10.20;4.40;;;13.90;99.90;;;;;;6311385;22;20158;-89
2021/12/29 17:53:56;;;;;;;12.90;4.63;;;14.00;99.90;;;;;;6310893;22;20149;-89
2021/12/29 17:56:23;;;;;;;10.30;5.80;;;13.90;99.90;;;;;;6311698;22;20218;-89
2021/12/29 17:58:49;;;;;;;6.53;4.93;;;13.90;99.90;;;;;;6311570;22;20155;-89
2021/12/29 18:01:17;;;;;;;10.57;5.03;;;13.90;99.90;;;;;;6311900;22;20149;-89
2021/12/29 18:03:42;;;;;;;8.60;4.33;;;14.00;99.90;;;;;;6311496;22;20211;-89
2021/12/29 18:06:09;;;;;;;11.40;3.87;;;14.00;99.90;;;;;;6311493;22;20571;-89
2021/12/29 18:08:36;;;;;;;10.37;3.33;;;13.90;99.90;;;;;;6311104;22;20645;-88
2021/12/29 18:11:02;;;;;;;10.07;3.70;;;14.00;99.90;;;;;;6311187;22;20141;-89
2021/12/29 18:13:28;;;;;;;11.33;5.33;;;14.00;99.90;;;;;;6311415;22;20699;-89
2021/12/29 18:15:54;;;;;;;15.37;4.50;;;14.00;99.90;;;;;;6311265;22;20180;-89
2021/12/29 18:18:20;;;;;;;11.33;4.80;;;14.00;99.90;;;;;;6311490;22;20153;-89
2021/12/29 18:20:46;;;;;;;11.97;5.53;;;14.00;99.90;;;;;;6311136;22;20171;-89
2021/12/29 18:23:12;;;;;;;12.50;4.03;;;14.00;99.90;;;;;;6311165;22;20169;-89
2021/12/29 18:25:40;;;;;;;18.77;4.80;;;14.00;99.90;;;;;;6311137;22;20223;-89
2021/12/29 18:28:06;;;;;;;11.17;4.17;;;14.00;99.90;;;;;;6311615;22;20150;-89
2021/12/29 18:30:32;;;;;;;13.50;5.07;;;14.10;99.90;;;;;;6311479;22;20626;-89
2021/12/29 18:32:58;;;;;;;23.80;10.93;;;14.10;99.90;;;;;;6311415;22;20235;-89
2021/12/29 18:35:24;;;;;;;15.53;6.53;;;14.10;99.90;;;;;;6310962;22;20158;-89
2021/12/29 18:37:51;;;;;;;19.77;4.50;;;14.10;99.90;;;;;;6311566;22;20149;-89
2021/12/29 18:40:19;;;;;;;22.07;6.23;;;14.00;99.90;;;;;;6311490;22;20150;-89
2021/12/29 18:42:45;;;;;;;21.80;6.80;;;14.10;99.90;;;;;;6311768;22;20176;-90
2021/12/29 18:45:12;;;;;;;29.13;14.80;;;14.00;99.90;;;;;;6311147;22;20487;-89
2021/12/29 18:47:38;;;;;;;29.47;13.07;;;14.00;99.90;;;;;;6311692;22;20216;-90
2021/12/29 18:50:06;;;;;;;19.37;6.83;;;14.00;99.90;;;;;;6311135;22;20536;-89
2021/12/29 18:52:32;;;;;;;27.97;10.87;;;14.10;99.90;;;;;;6311436;22;20253;-89
2021/12/29 18:54:57;;;;;;;18.60;4.27;;;14.10;99.90;;;;;;6311871;22;20145;-90
2021/12/29 18:57:23;;;;;;;21.87;7.10;;;14.10;99.90;;;;;;6311441;22;20486;-89
2021/12/29 18:59:49;;;;;;;18.00;4.73;;;14.10;99.90;;;;;;6311512;22;20610;-90
2021/12/29 19:02:14;;;;;;;19.50;5.03;;;14.10;99.90;;;;;;6311722;22;20154;-90
2021/12/29 19:04:41;;;;;;;19.50;4.30;;;14.10;99.90;;;;;;6312254;22;20156;-89
2021/12/29 19:07:11;;;;;;;24.03;4.93;;;14.00;99.90;;;;;;6312777;22;20172;-89
2021/12/29 19:09:37;;;;;;;20.70;4.97;;;14.00;99.90;;;;;;6314353;22;20146;-89
2021/12/29 19:12:04;;;;;;;24.50;4.87;;;14.00;99.90;;;;;;6313867;22;20212;-90
2021/12/29 19:14:33;;;;;;;26.33;5.17;;;14.00;99.90;;;;;;6313215;22;20145;-89
2021/12/29 19:16:59;;;;;;;24.97;6.43;;;13.90;99.90;;;;;;6312403;22;20604;-89
2021/12/29 19:19:25;;;;;;;33.30;9.57;;;13.90;99.90;;;;;;6312706;22;20142;-89
2021/12/29 19:21:51;;;;;;;31.00;9.33;;;13.90;99.90;;;;;;6312567;22;20141;-89
2021/12/29 19:24:16;;;;;;;43.37;15.73;;;14.00;99.90;;;;;;6312713;22;20147;-90
2021/12/29 19:26:42;;;;;;;23.73;6.27;;;14.00;99.90;;;;;;6312833;22;20174;-89
2021/12/29 19:29:08;;;;;;;23.37;5.43;;;13.90;99.90;;;;;;6313183;22;20141;-90
2021/12/29 19:31:34;;;;;;;40.07;13.60;;;13.90;99.90;;;;;;6312502;22;20139;-89
2021/12/29 19:34:00;;;;;;;32.50;9.17;;;13.80;99.90;;;;;;6312012;22;20153;-89
2021/12/29 19:36:25;;;;;;;27.67;5.90;;;13.80;99.90;;;;;;6312370;22;20238;-89
2021/12/29 19:38:51;;;;;;;22.80;5.80;;;13.80;99.90;;;;;;6312640;22;20535;-89
2021/12/29 19:41:19;;;;;;;28.60;6.20;;;13.80;99.90;;;;;;6312567;22;20146;-90
2021/12/29 19:43:47;;;;;;;31.87;7.10;;;13.80;99.90;;;;;;6312518;22;20150;-89
2021/12/29 19:46:13;;;;;;;26.93;8.30;;;13.70;99.90;;;;;;6312736;22;20239;-89
2021/12/29 19:48:42;;;;;;;25.40;9.87;;;13.70;99.90;;;;;;6312070;22;20150;-89
2021/12/29 19:51:10;;;;;;;30.63;7.23;;;13.70;99.90;;;;;;6312503;22;20168;-90
2021/12/29 19:53:36;;;;;;;32.60;5.63;;;13.80;99.90;;;;;;6312357;22;20179;-89
2021/12/29 19:56:02;;;;;;;29.57;5.00;;;13.80;99.90;;;;;;6312867;22;20147;-90
2021/12/29 19:58:28;;;;;;;30.83;5.97;;;13.70;99.90;;;;;;6312182;22;20157;-90
2021/12/29 20:00:54;;;;;;;35.17;8.20;;;13.70;99.90;;;;;;6312420;22;20149;-90
2021/12/29 20:03:21;;;;;;;30.13;6.43;;;13.70;99.90;;;;;;6312665;22;20216;-90
2021/12/29 20:05:53;;;;;;;33.23;6.57;;;13.70;99.90;;;;;;6312626;22;20154;-89
2021/12/29 20:08:19;;;;;;;28.00;6.77;;;13.70;99.90;;;;;;6312586;22;20446;-89
2021/12/29 20:10:56;;;;;;;34.60;6.93;;;13.70;99.90;;;;;;6312270;22;20160;-90
2021/12/29 20:13:28;;;;;;;29.93;6.33;;;13.70;99.90;;;;;;6312045;22;20207;-90
2021/12/29 20:16:01;;;;;;;28.93;5.77;;;13.70;99.90;;;;;;6311815;22;20149;-90
2021/12/29 20:18:27;;;;;;;31.57;5.70;;;13.70;99.90;;;;;;6311808;22;20161;-90
2021/12/29 20:20:52;;;;;;;25.77;4.70;;;13.60;99.90;;;;;;6312389;22;20145;-90
2021/12/29 20:23:18;;;;;;;33.93;8.00;;;13.50;99.90;;;;;;6312645;22;20143;-90
2021/12/29 20:25:44;;;;;;;28.17;5.30;;;13.60;99.90;;;;;;6312131;22;20170;-90
2021/12/29 20:28:09;;;;;;;33.37;5.20;;;13.60;99.90;;;;;;6311924;22;20148;-89
2021/12/29 20:30:38;;;;;;;32.10;6.07;;;13.60;99.90;;;;;;6312191;22;20154;-90
2021/12/29 20:33:05;;;;;;;32.60;7.20;;;13.60;99.90;;;;;;6311449;22;20263;-89
2021/12/29 20:35:30;;;;;;;35.87;7.40;;;13.70;99.90;;;;;;6312101;22;20143;-90
2021/12/29 20:37:56;;;;;;;30.00;7.37;;;13.70;99.90;;;;;;6312046;22;20150;-89
2021/12/29 20:40:22;;;;;;;29.70;6.00;;;13.70;99.90;;;;;;6312275;22;20160;-90
2021/12/29 20:42:49;;;;;;;30.07;5.03;;;13.70;99.90;;;;;;6312198;22;20145;-90
2021/12/29 20:45:14;;;;;;;24.43;5.03;;;13.60;99.90;;;;;;6312016;22;20183;-90
2021/12/29 20:47:40;;;;;;;36.30;6.70;;;13.50;99.90;;;;;;6311900;22;20161;-90
2021/12/29 20:50:10;;;;;;;31.63;5.93;;;13.50;99.90;;;;;;6311928;22;20152;-89